地図

経路データ

SID SEASON NUMBER BASIN SUBBASIN NAME ISO_TIME NATURE LAT LON WMO_WIND WMO_PRES WMO_AGENCY TRACK_TYPE DIST2LAND LANDFALL IFLAG USA_AGENCY USA_ATCF_ID USA_LAT USA_LON USA_RECORD USA_STATUS USA_WIND USA_PRES USA_SSHS USA_R34_NE USA_R34_SE USA_R34_SW USA_R34_NW USA_R50_NE USA_R50_SE USA_R50_SW USA_R50_NW USA_R64_NE USA_R64_SE USA_R64_SW USA_R64_NW USA_POCI USA_ROCI USA_RMW USA_EYE TOKYO_LAT TOKYO_LON TOKYO_GRADE TOKYO_WIND TOKYO_PRES TOKYO_R50_DIR TOKYO_R50_LONG TOKYO_R50_SHORT TOKYO_R30_DIR TOKYO_R30_LONG TOKYO_R30_SHORT TOKYO_LAND CMA_LAT CMA_LON CMA_CAT CMA_WIND CMA_PRES HKO_LAT HKO_LON HKO_CAT HKO_WIND HKO_PRES NEWDELHI_LAT NEWDELHI_LON NEWDELHI_GRADE NEWDELHI_WIND NEWDELHI_PRES NEWDELHI_CI NEWDELHI_DP NEWDELHI_POCI REUNION_LAT REUNION_LON REUNION_TYPE REUNION_WIND REUNION_PRES REUNION_TNUM REUNION_CI REUNION_RMW REUNION_R34_NE REUNION_R34_SE REUNION_R34_SW REUNION_R34_NW REUNION_R50_NE REUNION_R50_SE REUNION_R50_SW REUNION_R50_NW REUNION_R64_NE REUNION_R64_SE REUNION_R64_SW REUNION_R64_NW BOM_LAT BOM_LON BOM_TYPE BOM_WIND BOM_PRES BOM_TNUM BOM_CI BOM_RMW BOM_R34_NE BOM_R34_SE BOM_R34_SW BOM_R34_NW BOM_R50_NE BOM_R50_SE BOM_R50_SW BOM_R50_NW BOM_R64_NE BOM_R64_SE BOM_R64_SW BOM_R64_NW BOM_ROCI BOM_POCI BOM_EYE BOM_POS_METHOD BOM_PRES_METHOD NADI_LAT NADI_LON NADI_CAT NADI_WIND NADI_PRES WELLINGTON_LAT WELLINGTON_LON WELLINGTON_WIND WELLINGTON_PRES DS824_LAT DS824_LON DS824_STAGE DS824_WIND DS824_PRES TD9636_LAT TD9636_LON TD9636_STAGE TD9636_WIND TD9636_PRES TD9635_LAT TD9635_LON TD9635_WIND TD9635_PRES TD9635_ROCI NEUMANN_LAT NEUMANN_LON NEUMANN_CLASS NEUMANN_WIND NEUMANN_PRES MLC_LAT MLC_LON MLC_CLASS MLC_WIND MLC_PRES USA_GUST BOM_GUST BOM_GUST_PER REUNION_GUST REUNION_GUST_PER USA_SEAHGT USA_SEARAD_NE USA_SEARAD_SE USA_SEARAD_SW USA_SEARAD_NW STORM_SPEED STORM_DIR
1926021S11061 1926 7 SI MM NOT_NAMED 1926-01-21 06:00:00 NR -11.0000 60.7000 main 1067 1045 __________O___ -1 -11.0000 60.7000 7 8 250
1926021S11061 1926 7 SI MM NOT_NAMED 1926-01-21 09:00:00 NR -11.1318 60.3270 main 1045 1015 __________P___ -1 -11.1318 60.3270 7 8 250
1926021S11061 1926 7 SI MM NOT_NAMED 1926-01-21 12:00:00 NR -11.2606 59.9730 main 1015 996 __________P___ -1 -11.2606 59.9730 7 7 249
1926021S11061 1926 7 SI MM NOT_NAMED 1926-01-21 15:00:00 NR -11.3842 59.6575 main 996 979 __________P___ -1 -11.3842 59.6575 7 6 247
1926021S11061 1926 7 SI MM NOT_NAMED 1926-01-21 18:00:00 NR -11.5000 59.4000 main 979 964 __________O___ -1 -11.5000 59.4000 7 5 243
1926021S11061 1926 7 SI MM NOT_NAMED 1926-01-21 21:00:00 NR -11.6084 59.2100 main 964 951 __________P___ -1 -11.6084 59.2100 7 4 237
1926021S11061 1926 7 SI MM NOT_NAMED 1926-01-22 00:00:00 NR -11.7195 59.0570 main 951 937 __________P___ -1 -11.7195 59.0570 7 4 232
1926021S11061 1926 7 SI MM NOT_NAMED 1926-01-22 03:00:00 NR -11.8459 58.9005 main 937 912 __________P___ -1 -11.8459 58.9005 7 4 231
1926021S11061 1926 7 SI MM NOT_NAMED 1926-01-22 06:00:00 NR -12.0000 58.7000 main 912 887 __________O___ -1 -12.0000 58.7000 7 6 235
1926021S11061 1926 7 SI MM NOT_NAMED 1926-01-22 09:00:00 NR -12.2046 58.3844 main 887 862 __________P___ -1 -12.2046 58.3844 7 8 237
1926021S11061 1926 7 SI MM NOT_NAMED 1926-01-22 12:00:00 NR -12.4354 58.0229 main 862 826 __________P___ -1 -12.4354 58.0229 7 9 237
1926021S11061 1926 7 SI MM NOT_NAMED 1926-01-22 15:00:00 NR -12.6734 57.6500 main 816 777 __________P___ -1 -12.6734 57.6500 7 8 237
1926021S11061 1926 7 SI MM NOT_NAMED 1926-01-22 18:00:00 NR -12.9000 57.3000 main 777 739 __________O___ -1 -12.9000 57.3000 7 7 236
1926021S11061 1926 7 SI MM NOT_NAMED 1926-01-22 21:00:00 NR -13.0892 57.0169 main 739 711 __________P___ -1 -13.0892 57.0169 7 6 235
1926021S11061 1926 7 SI MM NOT_NAMED 1926-01-23 00:00:00 NR -13.2647 56.7622 main 711 677 __________P___ -1 -13.2647 56.7622 7 6 234
1926021S11061 1926 7 SI MM NOT_NAMED 1926-01-23 03:00:00 NR -13.4330 56.5263 main 677 650 __________P___ -1 -13.4330 56.5263 7 6 233
1926021S11061 1926 7 SI MM NOT_NAMED 1926-01-23 06:00:00 NR -13.6000 56.3000 main 650 623 __________O___ -1 -13.6000 56.3000 7 6 233
1926021S11061 1926 7 SI MM NOT_NAMED 1926-01-23 09:00:00 NR -13.7749 56.0637 main 623 588 __________P___ -1 -13.7749 56.0637 7 6 232
1926021S11061 1926 7 SI MM NOT_NAMED 1926-01-23 12:00:00 NR -13.9499 55.8349 main 588 562 __________P___ -1 -13.9499 55.8349 7 6 231
1926021S11061 1926 7 SI MM NOT_NAMED 1926-01-23 15:00:00 NR -14.1249 55.6137 main 562 536 __________P___ -1 -14.1249 55.6137 7 6 230
1926021S11061 1926 7 SI MM NOT_NAMED 1926-01-23 18:00:00 NR -14.3000 55.4000 main 536 513 __________O___ -1 -14.3000 55.4000 7 5 231
1926021S11061 1926 7 SI MM NOT_NAMED 1926-01-23 21:00:00 NR -14.4505 55.2006 main 511 488 __________P___ -1 -14.4505 55.2006 7 5 231
1926021S11061 1926 7 SI MM NOT_NAMED 1926-01-24 00:00:00 NR -14.6048 55.0070 main 488 464 __________P___ -1 -14.6048 55.0070 7 5 229
1926021S11061 1926 7 SI MM NOT_NAMED 1926-01-24 03:00:00 NR -14.7817 54.8099 main 464 440 __________P___ -1 -14.7817 54.8099 7 6 225
1926021S11061 1926 7 SI MM NOT_NAMED 1926-01-24 06:00:00 NR -15.0000 54.6000 main 440 418 __________O___ -1 -15.0000 54.6000 7 7 223
1926021S11061 1926 7 SI MM NOT_NAMED 1926-01-24 09:00:00 NR -15.2658 54.3483 main 407 386 __________P___ -1 -15.2658 54.3483 7 8 221
1926021S11061 1926 7 SI MM NOT_NAMED 1926-01-24 12:00:00 NR -15.5752 54.0852 main 386 357 __________P___ -1 -15.5752 54.0852 7 8 217
1926021S11061 1926 7 SI MM NOT_NAMED 1926-01-24 15:00:00 NR -15.9220 53.8295 main 357 343 __________P___ -1 -15.9220 53.8295 7 9 213
1926021S11061 1926 7 SI MM NOT_NAMED 1926-01-24 18:00:00 NR -16.3000 53.6000 main 346 337 __________O___ -1 -16.3000 53.6000 7 9 208
1926021S11061 1926 7 SI MM NOT_NAMED 1926-01-24 21:00:00 NR -16.7124 53.3970 main 342 337 __________P___ -1 -16.7124 53.3970 7 9 203
1926021S11061 1926 7 SI MM NOT_NAMED 1926-01-25 00:00:00 NR -17.1499 53.2252 main 341 341 __________P___ -1 -17.1499 53.2252 7 9 199
1926021S11061 1926 7 SI MM NOT_NAMED 1926-01-25 03:00:00 NR -17.5875 53.0908 main 356 356 __________P___ -1 -17.5875 53.0908 7 9 194
1926021S11061 1926 7 SI MM NOT_NAMED 1926-01-25 06:00:00 NR -18.0000 53.0000 main 365 365 __________O___ -1 -18.0000 53.0000 7 8 191
1926021S11061 1926 7 SI MM NOT_NAMED 1926-01-25 09:00:00 NR -18.3577 52.9363 main 367 359 __________P___ -1 -18.3577 52.9363 7 7 187
1926021S11061 1926 7 SI MM NOT_NAMED 1926-01-25 12:00:00 NR -18.6873 52.9173 main 359 335 __________P___ -1 -18.6873 52.9173 7 6 0
1926021S11061 1926 7 SI MM NOT_NAMED 1926-01-25 15:00:00 NR -18.9983 52.9397 main 335 305 __________P___ -1 -18.9983 52.9397 7 6 172
1926021S11061 1926 7 SI MM NOT_NAMED 1926-01-25 18:00:00 NR -19.3000 53.0000 main 305 275 __________O___ -1 -19.3000 53.0000 7 6 169
1926021S11061 1926 7 SI MM NOT_NAMED 1926-01-25 21:00:00 NR -19.6152 53.0728 main 275 247 __________P___ -1 -19.6152 53.0728 7 6 165
1926021S11061 1926 7 SI MM NOT_NAMED 1926-01-26 00:00:00 NR -19.9224 53.1825 main 247 221 __________P___ -1 -19.9224 53.1825 7 7 159
1926021S11061 1926 7 SI MM NOT_NAMED 1926-01-26 03:00:00 NR -20.2183 53.3260 main 221 188 __________P___ -1 -20.2183 53.3260 7 7 153
1926021S11061 1926 7 SI MM NOT_NAMED 1926-01-26 06:00:00 NR -20.5000 53.5000 main 188 159 __________O___ -1 -20.5000 53.5000 7 7 148
1926021S11061 1926 7 SI MM NOT_NAMED 1926-01-26 09:00:00 NR -20.7767 53.7042 main 159 135 __________P___ -1 -20.7767 53.7042 7 7 143
1926021S11061 1926 7 SI MM NOT_NAMED 1926-01-26 12:00:00 NR -21.0377 53.9348 main 135 106 __________P___ -1 -21.0377 53.9348 7 7 139
1926021S11061 1926 7 SI MM NOT_NAMED 1926-01-26 15:00:00 NR -21.2798 54.1730 main 106 94 __________P___ -1 -21.2798 54.1730 7 6 137
1926021S11061 1926 7 SI MM NOT_NAMED 1926-01-26 18:00:00 NR -21.5000 54.4000 main 94 85 __________O___ -1 -21.5000 54.4000 7 6 137
1926021S11061 1926 7 SI MM NOT_NAMED 1926-01-26 21:00:00 NR -21.6841 54.5778 main 85 83 __________P___ -1 -21.6841 54.5778 7 5 138
1926021S11061 1926 7 SI MM NOT_NAMED 1926-01-27 00:00:00 NR -21.8497 54.7434 main 83 83 __________P___ -1 -21.8497 54.7434 7 5 137
1926021S11061 1926 7 SI MM NOT_NAMED 1926-01-27 03:00:00 NR -22.0154 54.9122 main 88 88 __________P___ -1 -22.0154 54.9122 7 5 137
1926021S11061 1926 7 SI MM NOT_NAMED 1926-01-27 06:00:00 NR -22.2000 55.1000 main 102 102 __________O___ -1 -22.2000 55.1000 7 6 137
1926021S11061 1926 7 SI MM NOT_NAMED 1926-01-27 09:00:00 NR -22.4285 55.3284 main 116 116 __________P___ -1 -22.4285 55.3284 7 7 137
1926021S11061 1926 7 SI MM NOT_NAMED 1926-01-27 12:00:00 NR -22.6775 55.5774 main 145 145 __________P___ -1 -22.6775 55.5774 7 7 137
1926021S11061 1926 7 SI MM NOT_NAMED 1926-01-27 15:00:00 NR -22.9378 55.8378 main 168 168 __________P___ -1 -22.9378 55.8378 7 7 137
1926021S11061 1926 7 SI MM NOT_NAMED 1926-01-27 18:00:00 NR -23.2000 56.1000 main 207 207 __________O___ -1 -23.2000 56.1000 7 7 137
1926021S11061 1926 7 SI MM NOT_NAMED 1926-01-27 21:00:00 NR -23.4566 56.3563 main 248 248 __________P___ -1 -23.4566 56.3563 7 7 137
1926021S11061 1926 7 SI MM NOT_NAMED 1926-01-28 00:00:00 NR -23.7077 56.6070 main 276 276 __________P___ -1 -23.7077 56.6070 7 7 137
1926021S11061 1926 7 SI MM NOT_NAMED 1926-01-28 03:00:00 NR -23.9549 56.8541 main 319 319 __________P___ -1 -23.9549 56.8541 7 7 137
1926021S11061 1926 7 SI MM NOT_NAMED 1926-01-28 06:00:00 NR -24.2000 57.1000 main 348 __________O___ -1 -24.2000 57.1000 7 7 138

IBTrACS Databaseについて

本データベースは、米国NOAAが公開する1842年以降の世界の熱帯低気圧のベストトラックデータアーカイブInternational Best Track Archive for Climate Stewardship (IBTrACS)を、ウェブで閲覧しやすい形式に変換したものです。

最終更新日:2021-11-26